createdAt,value
2023-02-12T00:01:09.960Z,17.97
2023-02-12T00:03:38.309Z,16.03
2023-02-12T00:06:07.433Z,19.67
2023-02-12T00:08:37.109Z,21.63
2023-02-12T00:11:10.659Z,23.27
2023-02-12T00:13:38.941Z,24.30
2023-02-12T00:16:08.978Z,20.03
2023-02-12T00:18:37.385Z,21.60
2023-02-12T00:21:06.110Z,23.60
2023-02-12T00:23:34.238Z,22.73
2023-02-12T00:26:06.651Z,24.63
2023-02-12T00:28:34.947Z,23.83
2023-02-12T00:31:07.692Z,24.77
2023-02-12T00:33:35.987Z,26.13
2023-02-12T00:36:04.637Z,25.57
2023-02-12T00:38:32.906Z,25.97
2023-02-12T00:41:01.086Z,25.60
2023-02-12T00:43:30.600Z,26.30
2023-02-12T00:45:59.271Z,23.63
2023-02-12T00:48:28.407Z,23.13
2023-02-12T00:50:56.648Z,23.90
2023-02-12T00:53:24.927Z,22.67
2023-02-12T00:55:53.402Z,23.47
2023-02-12T00:58:22.883Z,21.63
2023-02-12T01:00:52.592Z,26.17
2023-02-12T01:03:21.071Z,22.53
2023-02-12T01:05:49.381Z,20.20
2023-02-12T01:08:18.032Z,22.43
2023-02-12T01:10:46.556Z,20.27
2023-02-12T01:13:15.888Z,22.77
2023-02-12T01:15:44.950Z,21.27
2023-02-12T01:18:16.193Z,22.07
2023-02-12T01:20:45.708Z,23.20
2023-02-12T01:23:13.984Z,23.90
2023-02-12T01:25:42.121Z,24.13
2023-02-12T01:28:11.335Z,27.50
2023-02-12T01:30:39.759Z,24.37
2023-02-12T01:33:07.870Z,22.53
2023-02-12T01:35:38.629Z,26.60
2023-02-12T01:38:07.393Z,25.77
2023-02-12T01:40:37.290Z,26.87
2023-02-12T01:43:05.603Z,25.07
2023-02-12T01:45:46.747Z,25.60
2023-02-12T01:48:15.841Z,26.90
2023-02-12T01:50:45.876Z,25.87
2023-02-12T01:53:19.986Z,25.43
2023-02-12T01:55:53.544Z,25.47
2023-02-12T01:58:21.885Z,26.63
2023-02-12T02:00:50.182Z,24.17
2023-02-12T02:03:18.292Z,23.17
2023-02-12T02:05:53.774Z,22.53
2023-02-12T02:08:22.275Z,22.30
2023-02-12T02:10:50.427Z,20.90
2023-02-12T02:13:36.329Z,24.77
2023-02-12T02:16:08.259Z,23.63
2023-02-12T02:18:39.136Z,21.63
2023-02-12T02:21:26.990Z,21.87
2023-02-12T02:24:33.634Z,24.87
2023-02-12T02:27:25.400Z,23.93
2023-02-12T02:32:52.237Z,23.77
2023-02-12T02:35:26.529Z,24.17
2023-02-12T02:38:03.778Z,22.33
2023-02-12T02:40:34.812Z,23.57
2023-02-12T02:43:06.000Z,24.70
2023-02-12T02:45:37.032Z,26.30
2023-02-12T02:48:09.464Z,23.63
2023-02-12T02:50:39.309Z,22.37
2023-02-12T02:53:09.446Z,23.87
2023-02-12T02:55:41.819Z,22.30
2023-02-12T02:58:13.012Z,25.03
2023-02-12T03:00:43.847Z,25.80
2023-02-12T03:03:18.425Z,28.80
2023-02-12T03:05:48.631Z,29.40
2023-02-12T03:08:20.195Z,25.90
2023-02-12T03:10:50.488Z,24.30
2023-02-12T03:13:21.313Z,25.40
2023-02-12T03:15:52.287Z,28.70
2023-02-12T03:18:25.496Z,25.73
2023-02-12T03:20:56.401Z,23.47
2023-02-12T03:23:26.388Z,23.87
2023-02-12T03:25:57.786Z,20.73
2023-02-12T03:28:28.670Z,22.90
2023-02-12T03:31:04.729Z,21.10
2023-02-12T03:33:40.410Z,22.10
2023-02-12T03:36:12.008Z,22.63
2023-02-12T03:38:42.765Z,22.63
2023-02-12T03:41:14.134Z,17.87
2023-02-12T03:43:50.362Z,19.23
2023-02-12T03:46:22.325Z,18.23
2023-02-12T03:48:59.749Z,20.40
2023-02-12T03:51:31.333Z,19.90
2023-02-12T03:53:59.502Z,18.93
2023-02-12T03:56:32.119Z,20.37
2023-02-12T03:59:00.292Z,19.77
2023-02-12T04:01:28.634Z,18.03
2023-02-12T04:03:58.579Z,20.17
2023-02-12T04:06:28.870Z,24.50
2023-02-12T04:08:59.247Z,25.57
2023-02-12T04:11:31.738Z,24.50
2023-02-12T04:14:13.376Z,26.63
2023-02-12T04:16:45.028Z,25.30
2023-02-12T04:19:17.927Z,23.30
2023-02-12T04:21:54.841Z,27.47
2023-02-12T04:24:29.485Z,24.87
2023-02-12T04:27:01.197Z,19.70
2023-02-12T04:29:33.289Z,23.57
2023-02-12T04:32:06.292Z,20.33
2023-02-12T04:34:39.018Z,21.40
2023-02-12T04:37:10.980Z,24.27
2023-02-12T04:39:39.899Z,24.63
2023-02-12T04:42:08.065Z,22.50
2023-02-12T04:44:39.449Z,28.60
2023-02-12T04:47:07.577Z,24.77
2023-02-12T04:49:37.082Z,28.40
2023-02-12T04:52:05.239Z,27.93
2023-02-12T04:54:33.401Z,24.90
2023-02-12T04:57:01.592Z,25.60
2023-02-12T04:59:29.876Z,25.23
2023-02-12T05:01:58.005Z,23.63
2023-02-12T05:04:26.141Z,26.13
2023-02-12T05:06:55.646Z,25.93
2023-02-12T05:09:23.779Z,26.67
2023-02-12T05:11:51.880Z,24.83
2023-02-12T05:14:20.030Z,25.40
2023-02-12T05:16:48.171Z,26.47
2023-02-12T05:19:16.280Z,23.63
2023-02-12T05:21:44.529Z,24.67
2023-02-12T05:24:14.062Z,22.73
2023-02-12T05:26:42.174Z,26.33
2023-02-12T05:29:10.346Z,23.47
2023-02-12T05:31:38.672Z,22.83
2023-02-12T05:34:08.306Z,23.77
2023-02-12T05:36:36.433Z,22.80
2023-02-12T05:39:05.834Z,24.13
2023-02-12T05:41:35.700Z,21.33
2023-02-12T05:44:04.125Z,20.30
2023-02-12T05:46:32.487Z,21.93
2023-02-12T05:49:00.631Z,22.40
2023-02-12T05:51:28.981Z,19.87
2023-02-12T05:54:00.120Z,20.20
2023-02-12T05:56:29.912Z,21.93
2023-02-12T05:59:02.176Z,21.97
2023-02-12T06:01:33.191Z,24.10
2023-02-12T06:04:01.492Z,20.73
2023-02-12T06:06:29.968Z,22.90
2023-02-12T06:08:58.118Z,18.23
2023-02-12T06:11:26.437Z,21.80
2023-02-12T06:13:54.561Z,21.63
2023-02-12T06:16:25.360Z,21.13
2023-02-12T06:18:53.979Z,20.67
2023-02-12T06:21:22.919Z,22.87
2023-02-12T06:23:51.864Z,21.73
2023-02-12T06:26:20.067Z,22.60
2023-02-12T06:28:48.276Z,23.87
2023-02-12T06:31:20.141Z,28.40
2023-02-12T06:33:49.737Z,26.63
2023-02-12T06:36:18.198Z,24.03
2023-02-12T06:38:46.461Z,23.73
2023-02-12T06:41:14.752Z,28.17
2023-02-12T06:43:43.058Z,25.50
2023-02-12T06:46:11.395Z,26.33
2023-02-12T06:48:39.611Z,27.60
2023-02-12T06:51:10.976Z,22.30
2023-02-12T06:53:39.104Z,29.47
2023-02-12T06:56:11.238Z,26.87
2023-02-12T06:58:39.886Z,26.10
2023-02-12T07:01:13.558Z,28.50
2023-02-12T07:03:42.275Z,28.20
2023-02-12T07:06:11.876Z,29.43
2023-02-12T07:08:40.155Z,29.23
2023-02-12T07:11:09.297Z,32.80
2023-02-12T07:13:37.410Z,28.77
2023-02-12T07:16:07.023Z,26.87
2023-02-12T07:18:35.415Z,27.57
2023-02-12T07:21:03.638Z,26.93
2023-02-12T07:23:33.288Z,28.93
2023-02-12T07:26:02.871Z,26.00
2023-02-12T07:28:33.545Z,25.77
2023-02-12T07:31:01.902Z,28.30
2023-02-12T07:33:30.072Z,32.07
2023-02-12T07:36:01.561Z,25.90
2023-02-12T07:38:29.958Z,29.37
2023-02-12T07:41:10.646Z,29.37
2023-02-12T07:43:39.559Z,28.77
2023-02-12T07:46:11.594Z,27.13
2023-02-12T07:48:39.809Z,26.93
2023-02-12T07:51:09.001Z,28.50
2023-02-12T07:53:37.548Z,26.83
2023-02-12T07:56:14.334Z,30.83
2023-02-12T07:58:44.940Z,26.00
2023-02-12T08:01:19.424Z,27.23
2023-02-12T08:03:47.821Z,30.40
2023-02-12T08:06:17.059Z,29.20
2023-02-12T08:08:45.548Z,32.17
2023-02-12T08:11:15.876Z,30.77
2023-02-12T08:13:44.125Z,31.13
2023-02-12T08:16:14.079Z,28.67
2023-02-12T08:18:42.309Z,29.07
2023-02-12T08:21:11.577Z,30.97
2023-02-12T08:23:39.946Z,28.57
2023-02-12T08:26:10.859Z,30.70
2023-02-12T08:28:42.020Z,77.07
2023-02-12T08:31:12.096Z,39.43
2023-02-12T08:33:40.321Z,31.00
2023-02-12T08:36:10.461Z,28.37
2023-02-12T08:38:39.249Z,28.00
2023-02-12T08:41:08.962Z,31.07
2023-02-12T08:43:37.574Z,28.03
2023-02-12T08:46:08.669Z,30.23
2023-02-12T08:48:37.016Z,27.97
2023-02-12T08:51:10.045Z,30.23
2023-02-12T08:53:38.272Z,25.47
2023-02-12T08:56:07.332Z,31.30
2023-02-12T08:58:35.896Z,27.90
2023-02-12T09:01:04.422Z,30.23
2023-02-12T09:03:34.066Z,34.30
2023-02-12T09:06:03.744Z,29.83
2023-02-12T09:08:32.191Z,44.67
2023-02-12T09:11:00.541Z,35.63
2023-02-12T09:13:28.749Z,35.13
2023-02-12T09:15:57.242Z,36.13
2023-02-12T09:18:25.877Z,32.23
2023-02-12T09:20:55.408Z,33.20
2023-02-12T09:23:23.604Z,32.93
2023-02-12T09:25:51.849Z,31.53
2023-02-12T09:28:20.199Z,28.47
2023-02-12T09:30:48.922Z,33.73
2023-02-12T09:33:17.173Z,32.03
2023-02-12T09:35:45.337Z,33.10
2023-02-12T09:38:14.948Z,32.00
2023-02-12T09:40:48.962Z,30.27
2023-02-12T09:43:20.244Z,31.70
2023-02-12T09:45:55.348Z,31.67
2023-02-12T09:48:48.339Z,32.43
2023-02-12T09:51:16.652Z,35.20
2023-02-12T09:53:47.697Z,32.23
2023-02-12T09:56:18.400Z,29.70
2023-02-12T09:58:48.631Z,31.80
2023-02-12T10:01:19.442Z,29.70
2023-02-12T10:03:49.147Z,33.67
2023-02-12T10:06:18.621Z,31.47
2023-02-12T10:09:05.022Z,28.77
2023-02-12T10:11:53.207Z,28.40
2023-02-12T10:14:47.939Z,28.13
2023-02-12T10:17:22.719Z,30.13
2023-02-12T10:20:16.871Z,27.87
2023-02-12T10:22:56.869Z,29.17
2023-02-12T10:25:29.934Z,31.23
2023-02-12T10:28:02.077Z,30.77
2023-02-12T10:30:37.756Z,30.63
2023-02-12T10:33:08.585Z,29.60
2023-02-12T10:35:36.796Z,31.57
2023-02-12T10:38:07.363Z,26.53
2023-02-12T10:40:39.008Z,34.53
2023-02-12T10:43:09.072Z,32.10
2023-02-12T10:45:39.984Z,30.93
2023-02-12T10:48:11.458Z,33.20
2023-02-12T10:50:46.280Z,31.17
2023-02-12T10:53:19.066Z,32.70
2023-02-12T10:55:48.517Z,32.37
2023-02-12T10:58:22.656Z,31.20
2023-02-12T11:00:58.214Z,29.57
2023-02-12T11:03:30.745Z,28.17
2023-02-12T11:06:12.830Z,30.53
2023-02-12T11:08:41.144Z,28.87
2023-02-12T11:11:12.701Z,29.87
2023-02-12T11:13:42.753Z,30.67
2023-02-12T11:16:11.470Z,30.37
2023-02-12T11:18:39.737Z,31.93
2023-02-12T11:21:08.798Z,29.07
2023-02-12T11:23:38.047Z,28.10
2023-02-12T11:26:07.635Z,29.53
2023-02-12T11:28:37.665Z,31.53
2023-02-12T11:31:22.282Z,29.00
2023-02-12T11:34:10.734Z,31.63
2023-02-12T11:36:39.916Z,30.07
2023-02-12T11:39:14.816Z,34.00
2023-02-12T11:41:42.936Z,30.27
2023-02-12T11:44:13.051Z,32.00
2023-02-12T11:46:41.429Z,25.83
2023-02-12T11:49:10.234Z,39.03
2023-02-12T11:51:38.316Z,33.37
2023-02-12T11:54:07.596Z,28.67
2023-02-12T11:56:43.838Z,41.60
2023-02-12T11:59:30.625Z,29.40
2023-02-12T12:02:00.926Z,44.67
2023-02-12T12:04:29.678Z,30.80
2023-02-12T12:07:01.969Z,29.93
2023-02-12T12:09:34.785Z,29.23
2023-02-12T12:12:09.985Z,27.80
2023-02-12T12:14:56.648Z,28.80
2023-02-12T12:17:45.252Z,26.30
2023-02-12T12:20:15.953Z,29.07
2023-02-12T12:22:48.848Z,27.53
2023-02-12T12:25:25.071Z,24.43
2023-02-12T12:28:08.170Z,24.80
2023-02-12T12:30:51.791Z,25.13
2023-02-12T12:33:36.782Z,28.70
2023-02-12T12:36:33.368Z,27.57
2023-02-12T12:39:04.970Z,25.70
2023-02-12T12:41:40.492Z,25.17
2023-02-12T12:44:23.393Z,24.17
2023-02-12T12:47:01.452Z,24.27
2023-02-12T12:49:43.814Z,24.10
2023-02-12T12:52:41.776Z,25.40
2023-02-12T12:55:35.514Z,14.27
2023-02-12T12:58:09.599Z,12.40
2023-02-12T13:00:50.993Z,21.83
2023-02-12T13:04:00.844Z,23.73
2023-02-12T13:06:39.563Z,21.33
2023-02-12T13:09:28.927Z,21.13
2023-02-12T13:12:12.265Z,19.60
2023-02-12T13:14:45.270Z,20.30
2023-02-12T13:17:19.015Z,20.50
2023-02-12T13:19:57.838Z,18.87
2023-02-12T13:22:30.637Z,19.47
2023-02-12T13:25:02.485Z,18.73
2023-02-12T13:27:34.494Z,21.87
2023-02-12T13:30:05.958Z,18.47
2023-02-12T13:32:36.040Z,16.27
2023-02-12T13:35:06.930Z,18.53
2023-02-12T13:37:39.863Z,18.60
2023-02-12T13:40:10.247Z,16.97
2023-02-12T13:42:46.444Z,17.57
2023-02-12T13:45:22.959Z,18.13
2023-02-12T13:48:00.703Z,18.90
2023-02-12T13:50:41.360Z,18.03
2023-02-12T13:53:16.970Z,18.87
2023-02-12T13:55:58.364Z,21.47
2023-02-12T13:58:51.742Z,20.60
2023-02-12T14:01:45.857Z,19.70
2023-02-12T14:04:31.189Z,18.27
2023-02-12T14:07:03.361Z,18.77
2023-02-12T14:09:37.811Z,20.77
2023-02-12T14:12:07.678Z,19.27
2023-02-12T14:14:37.517Z,18.57
2023-02-12T14:17:43.639Z,19.93
2023-02-12T14:20:33.035Z,20.77
2023-02-12T14:23:25.435Z,19.77
2023-02-12T14:26:02.718Z,20.03
2023-02-12T14:28:46.245Z,17.93
2023-02-12T14:31:38.963Z,20.23
2023-02-12T14:34:40.580Z,17.70
2023-02-12T14:37:16.455Z,18.27
2023-02-12T14:39:46.486Z,16.67
2023-02-12T14:42:50.488Z,17.23
2023-02-12T14:45:33.772Z,19.90
2023-02-12T14:48:02.199Z,19.93
2023-02-12T14:50:37.073Z,17.83
2023-02-12T14:53:23.596Z,16.77
2023-02-12T14:55:53.148Z,18.03
2023-02-12T14:58:22.206Z,17.60
2023-02-12T15:00:51.874Z,17.30
2023-02-12T15:03:25.632Z,18.60
2023-02-12T15:06:09.738Z,18.43
2023-02-12T15:08:43.729Z,17.73
2023-02-12T15:11:36.925Z,17.53
2023-02-12T15:14:07.437Z,16.43
2023-02-12T15:16:46.864Z,18.10
2023-02-12T15:19:24.352Z,17.67
2023-02-12T15:21:54.397Z,17.43
2023-02-12T15:24:24.237Z,18.17
2023-02-12T15:26:54.561Z,21.53
2023-02-12T15:29:25.141Z,20.10
2023-02-12T15:31:55.277Z,19.13
2023-02-12T15:34:25.977Z,18.63
2023-02-12T15:36:54.171Z,19.30
2023-02-12T15:39:23.160Z,17.23
2023-02-12T15:41:52.901Z,17.20
2023-02-12T15:44:27.339Z,18.33
2023-02-12T15:47:04.324Z,19.07
2023-02-12T15:49:35.549Z,19.87
2023-02-12T15:52:06.759Z,19.07
2023-02-12T15:54:35.106Z,20.30
2023-02-12T15:57:10.681Z,18.27
2023-02-12T15:59:39.724Z,18.27
2023-02-12T16:02:19.530Z,17.63
2023-02-12T16:04:47.717Z,19.57
2023-02-12T16:07:15.906Z,17.60
2023-02-12T16:09:44.107Z,17.40
2023-02-12T16:12:15.649Z,17.67
2023-02-12T16:14:46.423Z,17.47
2023-02-12T16:17:28.498Z,19.33
2023-02-12T16:19:58.731Z,17.60
2023-02-12T16:22:29.938Z,15.67
2023-02-12T16:24:58.456Z,19.87
2023-02-12T16:27:30.226Z,17.67
2023-02-12T16:29:59.701Z,19.03
2023-02-12T16:32:38.501Z,18.17
2023-02-12T16:35:24.281Z,16.63
2023-02-12T16:37:56.298Z,19.90
2023-02-12T16:40:31.413Z,17.10
2023-02-12T16:43:26.701Z,18.73
2023-02-12T16:46:05.504Z,21.03
2023-02-12T16:48:38.870Z,17.53
2023-02-12T16:51:07.310Z,19.13
2023-02-12T16:53:43.047Z,17.63
2023-02-12T16:56:21.049Z,28.83
2023-02-12T16:58:51.890Z,19.33
2023-02-12T17:01:24.485Z,20.97
2023-02-12T17:03:52.780Z,20.77
2023-02-12T17:06:21.824Z,20.77
2023-02-12T17:08:50.139Z,18.43
2023-02-12T17:11:18.522Z,19.23
2023-02-12T17:13:47.647Z,21.50
2023-02-12T17:16:29.916Z,20.03
2023-02-12T17:18:58.992Z,21.63
2023-02-12T17:21:29.305Z,20.93
2023-02-12T17:23:57.593Z,20.73
2023-02-12T17:26:26.111Z,19.77
2023-02-12T17:28:54.482Z,20.27
2023-02-12T17:31:24.345Z,18.40
2023-02-12T17:33:52.807Z,20.13
2023-02-12T17:36:21.214Z,22.70
2023-02-12T17:38:49.649Z,23.60
2023-02-12T17:41:17.970Z,19.37
2023-02-12T17:43:46.691Z,23.57
2023-02-12T17:46:18.923Z,27.60
2023-02-12T17:48:48.644Z,26.50
2023-02-12T17:51:17.169Z,20.47
2023-02-12T17:53:45.594Z,20.37
2023-02-12T17:56:14.156Z,20.50
2023-02-12T17:58:42.562Z,21.80
2023-02-12T18:01:12.245Z,21.90
2023-02-12T18:03:40.847Z,20.83
2023-02-12T18:06:13.995Z,21.73
2023-02-12T18:08:42.459Z,19.87
2023-02-12T18:11:12.484Z,19.97
2023-02-12T18:13:42.581Z,18.37
2023-02-12T18:16:11.491Z,18.80
2023-02-12T18:18:40.639Z,20.37
2023-02-12T18:21:11.740Z,22.77
2023-02-12T18:23:40.198Z,19.73
2023-02-12T18:26:09.021Z,19.10
2023-02-12T18:28:37.800Z,21.00
2023-02-12T18:31:06.673Z,18.17
2023-02-12T18:33:35.458Z,21.27
2023-02-12T18:36:06.124Z,20.60
2023-02-12T18:38:36.188Z,17.53
2023-02-12T18:41:08.158Z,15.30
2023-02-12T18:43:37.165Z,14.87
2023-02-12T18:46:09.261Z,14.43
2023-02-12T18:48:37.896Z,13.87
2023-02-12T18:51:07.828Z,16.17
2023-02-12T18:53:37.603Z,15.00
2023-02-12T18:56:06.697Z,14.87
2023-02-12T18:58:35.375Z,14.80
2023-02-12T19:01:14.891Z,15.73
2023-02-12T19:03:43.410Z,11.97
2023-02-12T19:06:11.841Z,13.07
2023-02-12T19:08:41.557Z,13.77
2023-02-12T19:11:10.728Z,10.77
2023-02-12T19:13:39.055Z,10.77
2023-02-12T19:16:08.668Z,12.33
2023-02-12T19:18:37.095Z,12.63
2023-02-12T19:21:09.133Z,8.77
2023-02-12T19:23:37.631Z,9.90
2023-02-12T19:26:08.986Z,9.50
2023-02-12T19:28:38.316Z,9.30
2023-02-12T19:31:18.845Z,9.50
2023-02-12T19:33:47.630Z,9.37
2023-02-12T19:36:19.157Z,8.27
2023-02-12T19:38:48.046Z,9.53
2023-02-12T19:41:19.276Z,10.30
2023-02-12T19:43:47.725Z,10.37
2023-02-12T19:46:18.197Z,9.27
2023-02-12T19:48:47.114Z,9.00
2023-02-12T19:51:15.846Z,8.80
2023-02-12T19:53:44.301Z,8.70
2023-02-12T19:56:12.543Z,9.90
2023-02-12T19:58:42.131Z,8.07
2023-02-12T20:01:10.841Z,9.47
2023-02-12T20:03:39.338Z,10.07
2023-02-12T20:06:10.858Z,10.70
2023-02-12T20:08:40.260Z,10.90
2023-02-12T20:11:08.908Z,10.17
2023-02-12T20:13:37.364Z,10.23
2023-02-12T20:16:09.232Z,10.20
2023-02-12T20:18:37.782Z,9.57
2023-02-12T20:21:10.669Z,8.63
2023-02-12T20:23:39.240Z,9.67
2023-02-12T20:26:08.073Z,9.70
2023-02-12T20:28:36.738Z,8.60
2023-02-12T20:31:11.005Z,8.80
2023-02-12T20:33:39.483Z,9.10
2023-02-12T20:36:10.207Z,8.27
2023-02-12T20:38:39.311Z,10.63
2023-02-12T20:41:08.317Z,11.07
2023-02-12T20:43:37.045Z,10.17
2023-02-12T20:46:06.054Z,8.10
2023-02-12T20:48:36.793Z,8.67
2023-02-12T20:51:06.273Z,8.57
2023-02-12T20:53:34.833Z,11.00
2023-02-12T20:56:03.825Z,9.50
2023-02-12T20:58:32.141Z,8.53
2023-02-12T21:01:07.628Z,8.07
2023-02-12T21:03:37.377Z,8.43
2023-02-12T21:06:06.384Z,7.43
2023-02-12T21:08:36.496Z,9.63
2023-02-12T21:11:06.485Z,8.70
2023-02-12T21:13:34.974Z,10.60
2023-02-12T21:16:08.669Z,8.57
2023-02-12T21:18:38.604Z,8.60
2023-02-12T21:21:08.936Z,10.37
2023-02-12T21:23:40.642Z,8.17
2023-02-12T21:26:10.340Z,8.80
2023-02-12T21:28:39.214Z,7.63
2023-02-12T21:31:09.815Z,8.93
2023-02-12T21:33:40.077Z,9.87
2023-02-12T21:36:09.857Z,7.83
2023-02-12T21:38:39.455Z,7.60
2023-02-12T21:41:09.876Z,7.43
2023-02-12T21:43:38.454Z,8.80
2023-02-12T21:46:07.046Z,8.40
2023-02-12T21:48:35.366Z,8.47
2023-02-12T21:51:05.873Z,8.17
2023-02-12T21:53:34.302Z,8.90
2023-02-12T21:56:03.845Z,10.73
2023-02-12T21:58:32.194Z,7.60
2023-02-12T22:01:08.178Z,9.33
2023-02-12T22:03:36.553Z,8.53
2023-02-12T22:06:07.904Z,10.63
2023-02-12T22:08:36.305Z,9.30
2023-02-12T22:11:05.005Z,8.53
2023-02-12T22:13:33.499Z,10.00
2023-02-12T22:16:10.374Z,10.10
2023-02-12T22:18:38.916Z,8.17
2023-02-12T22:21:12.728Z,8.63
2023-02-12T22:23:41.962Z,9.80
2023-02-12T22:26:11.528Z,7.93
2023-02-12T22:28:41.787Z,10.97
2023-02-12T22:31:10.781Z,8.97
2023-02-12T22:33:39.076Z,8.90
2023-02-12T22:36:10.607Z,9.53
2023-02-12T22:38:40.290Z,8.93
2023-02-12T22:41:09.519Z,8.70
2023-02-12T22:43:40.451Z,10.17
2023-02-12T22:46:09.957Z,9.27
2023-02-12T22:48:38.592Z,11.03
2023-02-12T22:51:13.110Z,9.23
2023-02-12T22:53:41.471Z,9.10
2023-02-12T22:56:10.190Z,9.73
2023-02-12T22:58:39.086Z,8.67
2023-02-12T23:01:08.208Z,8.70
2023-02-12T23:03:37.641Z,9.13
2023-02-12T23:06:07.570Z,11.27
2023-02-12T23:08:37.311Z,9.00
2023-02-12T23:11:07.178Z,10.30
2023-02-12T23:13:36.957Z,11.40
2023-02-12T23:16:05.512Z,11.23
2023-02-12T23:18:34.172Z,10.53
2023-02-12T23:21:02.603Z,9.07
2023-02-12T23:23:30.924Z,10.30
2023-02-12T23:26:00.634Z,10.63
2023-02-12T23:28:29.603Z,10.80
2023-02-12T23:30:58.526Z,10.97
2023-02-12T23:33:27.196Z,9.83
2023-02-12T23:35:55.962Z,9.47
2023-02-12T23:38:24.316Z,11.30
2023-02-12T23:40:52.633Z,9.17
2023-02-12T23:43:22.342Z,10.20
2023-02-12T23:45:50.901Z,9.50
2023-02-12T23:48:19.445Z,11.93
2023-02-12T23:50:49.786Z,8.77
2023-02-12T23:53:19.122Z,9.07
2023-02-12T23:55:47.534Z,9.47
2023-02-12T23:58:15.982Z,9.53
